createdAt,value
2019-04-25T00:03:18.830Z,15.3
2019-04-25T00:08:05.774Z,15.2
2019-04-25T00:12:53.819Z,15.2
2019-04-25T00:17:42.295Z,15.2
2019-04-25T00:22:32.639Z,15.1
2019-04-25T00:27:21.625Z,15.1
2019-04-25T00:32:11.711Z,15.1
2019-04-25T00:37:00.079Z,15
2019-04-25T00:41:01.745Z,15
2019-04-25T00:41:17.396Z,15
2019-04-25T00:41:34.205Z,15
2019-04-25T00:41:49.908Z,14.9
2019-04-25T00:42:05.485Z,15
2019-04-25T00:42:21.028Z,15
2019-04-25T00:42:36.578Z,15
2019-04-25T00:42:53.673Z,15
2019-04-25T00:43:09.412Z,15
2019-04-25T00:43:24.975Z,15
2019-04-25T00:44:28.332Z,15
2019-04-25T00:49:15.435Z,15
2019-04-25T00:54:03.474Z,15
2019-04-25T00:58:52.503Z,14.9
2019-04-25T01:03:39.931Z,14.9
2019-04-25T01:08:26.848Z,14.8
2019-04-25T01:12:27.438Z,14.8
2019-04-25T01:12:42.990Z,14.8
2019-04-25T01:13:46.171Z,14.8
2019-04-25T01:18:33.723Z,14.8
2019-04-25T01:23:21.160Z,14.8
2019-04-25T01:28:08.408Z,14.7
2019-04-25T01:32:56.672Z,14.7
2019-04-25T01:37:43.860Z,14.6
2019-04-25T01:41:44.612Z,14.5
2019-04-25T01:42:47.968Z,14.5
2019-04-25T01:47:35.130Z,14.5
2019-04-25T01:52:24.295Z,14.5
2019-04-25T01:57:11.471Z,14.5
2019-04-25T02:01:59.455Z,14.4
2019-04-25T02:06:01.460Z,14.4
2019-04-25T02:06:17.080Z,14.4
2019-04-25T02:06:33.477Z,14.4
2019-04-25T02:06:49.133Z,14.4
2019-04-25T02:07:04.699Z,14.4
2019-04-25T02:07:20.546Z,14.4
2019-04-25T02:07:36.136Z,14.4
2019-04-25T02:07:51.703Z,14.3
2019-04-25T02:08:07.687Z,14.4
2019-04-25T02:08:23.957Z,14.4
2019-04-25T02:08:39.882Z,14.4
2019-04-25T02:08:56.192Z,14.3
2019-04-25T02:09:13.531Z,14.3
2019-04-25T02:10:18.065Z,14.3
2019-04-25T02:15:06.252Z,14.3
2019-04-25T02:19:54.573Z,14.3
2019-04-25T02:24:43.732Z,14.3
2019-04-25T02:29:31.233Z,14.2
2019-04-25T02:33:33.829Z,14.2
2019-04-25T02:33:49.723Z,14.2
2019-04-25T02:34:08.408Z,14.2
2019-04-25T02:34:25.094Z,14.2
2019-04-25T02:34:40.770Z,14.2
2019-04-25T02:35:00.490Z,14.2
2019-04-25T02:36:08.600Z,14.2
2019-04-25T02:41:00.231Z,14.2
2019-04-25T02:45:50.462Z,14.1
2019-04-25T02:50:37.894Z,14.1
2019-04-25T02:55:31.888Z,14.1
2019-04-25T02:59:37.024Z,14
2019-04-25T03:00:52.609Z,14
2019-04-25T03:05:47.308Z,14
2019-04-25T03:10:35.432Z,14
2019-04-25T03:15:24.350Z,14
2019-04-25T03:20:14.150Z,13.9
2019-04-25T03:24:16.869Z,13.8
2019-04-25T03:24:34.941Z,13.8
2019-04-25T03:24:50.753Z,13.8
2019-04-25T03:25:09.975Z,13.8
2019-04-25T03:25:27.052Z,13.8
2019-04-25T03:25:43.511Z,13.8
2019-04-25T03:25:59.261Z,13.8
2019-04-25T03:26:15.272Z,13.8
2019-04-25T03:26:39.777Z,13.8
2019-04-25T03:27:44.071Z,13.8
2019-04-25T03:32:31.055Z,13.9
2019-04-25T03:37:18.763Z,13.8
2019-04-25T03:42:06.280Z,13.8
2019-04-25T03:46:53.551Z,13.7
2019-04-25T03:50:54.172Z,13.7
2019-04-25T03:51:10.030Z,13.7
2019-04-25T03:52:12.344Z,13.7
2019-04-25T03:57:06.666Z,13.7
2019-04-25T04:01:54.683Z,13.7
2019-04-25T04:06:41.510Z,13.7
2019-04-25T04:11:28.269Z,13.7
2019-04-25T04:15:28.920Z,13.6
2019-04-25T04:15:44.464Z,13.7
2019-04-25T04:16:46.668Z,13.7
2019-04-25T04:21:33.484Z,13.7
2019-04-25T04:26:20.228Z,13.7
2019-04-25T04:31:08.348Z,13.7
2019-04-25T04:35:55.472Z,13.8
2019-04-25T04:39:56.204Z,13.8
2019-04-25T04:40:11.904Z,13.8
2019-04-25T04:40:27.504Z,13.7
2019-04-25T04:40:44.148Z,13.8
2019-04-25T04:40:59.872Z,13.8
2019-04-25T04:41:16.418Z,13.7
2019-04-25T04:41:32.052Z,13.8
2019-04-25T04:41:47.618Z,13.7
2019-04-25T04:42:50.210Z,13.8
2019-04-25T04:47:38.080Z,13.8
2019-04-25T04:52:25.775Z,13.9
2019-04-25T04:57:22.760Z,14
2019-04-25T05:02:15.813Z,14
2019-04-25T05:06:17.358Z,14.1
2019-04-25T05:06:33.817Z,14.1
2019-04-25T05:07:35.689Z,14.1
2019-04-25T05:12:24.043Z,14.3
2019-04-25T05:17:14.962Z,14.3
2019-04-25T05:22:03.685Z,14.5
2019-04-25T05:26:50.773Z,14.5
2019-04-25T05:30:51.530Z,14.6
2019-04-25T05:31:07.088Z,14.6
2019-04-25T05:31:24.007Z,14.6
2019-04-25T05:31:40.970Z,14.6
2019-04-25T05:31:56.833Z,14.6
2019-04-25T05:32:15.426Z,14.6
2019-04-25T05:32:31.949Z,14.6
2019-04-25T05:32:47.666Z,14.6
2019-04-25T05:33:03.992Z,14.6
2019-04-25T05:33:21.546Z,14.6
2019-04-25T05:33:38.747Z,14.7
2019-04-25T05:33:54.653Z,14.7
2019-04-25T05:34:56.451Z,14.7
2019-04-25T05:39:44.130Z,14.9
2019-04-25T05:44:31.950Z,15
2019-04-25T05:49:19.276Z,15.1
2019-04-25T05:54:08.159Z,15.3
2019-04-25T05:58:08.766Z,15.4
2019-04-25T05:58:25.741Z,15.4
2019-04-25T05:58:41.745Z,15.4
2019-04-25T05:58:57.570Z,15.4
2019-04-25T05:59:13.506Z,15.4
2019-04-25T05:59:29.071Z,15.4
2019-04-25T05:59:44.890Z,15.4
2019-04-25T06:00:05.428Z,15.4
2019-04-25T06:00:21.204Z,15.4
2019-04-25T06:01:24.630Z,15.5
2019-04-25T06:06:13.431Z,15.6
2019-04-25T06:11:05.510Z,15.6
2019-04-25T06:15:53.343Z,15.7
2019-04-25T06:20:41.176Z,15.8
2019-04-25T06:25:32.932Z,16
2019-04-25T06:29:36.871Z,16
2019-04-25T06:29:59.037Z,16
2019-04-25T06:31:04.152Z,16.1
2019-04-25T06:35:56.822Z,16.3
2019-04-25T06:40:45.797Z,16.4
2019-04-25T06:45:35.081Z,16.5
2019-04-25T06:50:24.527Z,16.5
2019-04-25T06:55:14.134Z,16.5
2019-04-25T07:00:04.475Z,16.6
2019-04-25T07:04:51.615Z,16.8
2019-04-25T07:09:38.871Z,16.9
2019-04-25T07:14:26.700Z,17.1
2019-04-25T07:19:14.672Z,17.2
2019-04-25T07:24:04.358Z,17.4
2019-04-25T07:28:51.659Z,17.5
2019-04-25T07:33:38.522Z,17.6
2019-04-25T07:38:25.622Z,17.8
2019-04-25T07:43:13.430Z,17.9
2019-04-25T07:47:15.904Z,18
2019-04-25T07:47:34.869Z,18
2019-04-25T07:47:50.920Z,18
2019-04-25T07:48:06.604Z,18
2019-04-25T07:48:23.183Z,18
2019-04-25T07:48:40.292Z,18
2019-04-25T07:49:43.389Z,18
2019-04-25T07:54:30.663Z,18.2
2019-04-25T07:59:18.540Z,18.4
2019-04-25T08:04:05.840Z,18.4
2019-04-25T08:08:54.444Z,18.6
2019-04-25T08:13:42.266Z,18.7
2019-04-25T08:18:30.528Z,18.8
2019-04-25T08:23:17.391Z,18.9
2019-04-25T08:28:04.373Z,19
2019-04-25T08:32:51.453Z,19.2
2019-04-25T08:37:38.679Z,19.4
2019-04-25T08:42:26.427Z,19.5
2019-04-25T08:47:14.547Z,19.8
2019-04-25T08:52:01.977Z,19.9
2019-04-25T08:56:49.442Z,20
2019-04-25T09:01:44.978Z,20.1
2019-04-25T09:06:33.329Z,20.3
2019-04-25T09:11:24.497Z,20.5
2019-04-25T09:16:13.496Z,20.7
2019-04-25T09:21:03.956Z,21.1
2019-04-25T09:25:51.221Z,21.4
2019-04-25T09:30:38.740Z,21.5
2019-04-25T09:35:26.961Z,21.6
2019-04-25T09:40:16.235Z,21.7
2019-04-25T09:45:03.818Z,22
2019-04-25T09:49:50.773Z,22.3
2019-04-25T09:54:38.702Z,22.6
2019-04-25T09:59:28.045Z,22.8
2019-04-25T10:04:17.025Z,22.9
2019-04-25T10:09:04.984Z,23.3
2019-04-25T10:13:53.524Z,23.6
2019-04-25T10:18:41.308Z,23.6
2019-04-25T10:23:29.731Z,23.9
2019-04-25T10:28:17.173Z,24.1
2019-04-25T10:33:04.156Z,24.4
2019-04-25T10:37:53.825Z,24.5
2019-04-25T10:42:46.484Z,24.6
2019-04-25T10:47:35.311Z,25
2019-04-25T10:52:25.404Z,25.3
2019-04-25T10:57:17.380Z,25.3
2019-04-25T11:02:04.389Z,25.1
2019-04-25T11:06:51.718Z,25.2
2019-04-25T11:11:38.748Z,25.4
2019-04-25T11:16:25.784Z,25.6
2019-04-25T11:21:13.795Z,25.7
2019-04-25T11:26:01.596Z,25.9
2019-04-25T11:30:48.576Z,26.4
2019-04-25T11:35:35.612Z,27
2019-04-25T11:40:23.438Z,27.4
2019-04-25T11:45:10.566Z,27.2
2019-04-25T11:49:59.992Z,27.4
2019-04-25T11:54:48.159Z,27.9
2019-04-25T11:59:37.439Z,27.7
2019-04-25T12:04:24.646Z,28
2019-04-25T12:09:13.749Z,27.9
2019-04-25T12:14:01.620Z,27.9
2019-04-25T12:18:50.236Z,27.9
2019-04-25T12:23:38.049Z,28.2
2019-04-25T12:28:25.326Z,28.1
2019-04-25T12:33:19.206Z,28.1
2019-04-25T12:38:09.040Z,27.8
2019-04-25T12:42:56.545Z,27.1
2019-04-25T12:47:43.456Z,26.8
2019-04-25T12:52:30.266Z,26.7
2019-04-25T12:57:17.454Z,26.6
2019-04-25T13:02:04.674Z,26.2
2019-04-25T13:06:54.420Z,26.4
2019-04-25T13:11:41.324Z,27.2
2019-04-25T13:16:28.601Z,28.1
2019-04-25T13:21:15.421Z,28.7
2019-04-25T13:26:04.384Z,29.2
2019-04-25T13:31:01.530Z,29.5
2019-04-25T13:35:54.346Z,30
2019-04-25T13:40:41.797Z,29.8
2019-04-25T13:45:30.661Z,30
2019-04-25T13:50:18.227Z,30.3
2019-04-25T13:55:05.171Z,30.8
2019-04-25T13:59:54.137Z,31.4
2019-04-25T14:04:42.188Z,31.6
2019-04-25T14:09:29.545Z,31.7
2019-04-25T14:14:16.780Z,31.7
2019-04-25T14:19:04.104Z,31.8
2019-04-25T14:23:54.069Z,31.7
2019-04-25T14:28:41.559Z,31.3
2019-04-25T14:33:29.030Z,31.7
2019-04-25T14:38:16.624Z,31.7
2019-04-25T14:43:03.491Z,32
2019-04-25T14:47:51.021Z,31.6
2019-04-25T14:52:38.716Z,30.9
2019-04-25T14:57:26.156Z,30.3
2019-04-25T15:02:13.295Z,30
2019-04-25T15:07:06.703Z,30.1
2019-04-25T15:11:54.545Z,30.1
2019-04-25T15:16:41.450Z,29.8
2019-04-25T15:21:28.430Z,29.8
2019-04-25T15:26:15.743Z,29.9
2019-04-25T15:31:03.500Z,29.8
2019-04-25T15:35:50.439Z,30.1
2019-04-25T15:40:37.327Z,30.8
2019-04-25T15:45:25.283Z,31.4
2019-04-25T15:50:13.635Z,31.9
2019-04-25T15:55:07.086Z,32.4
2019-04-25T15:59:54.956Z,32.6
2019-04-25T16:04:41.971Z,32.9
2019-04-25T16:09:29.811Z,32.9
2019-04-25T16:14:17.241Z,32.9
2019-04-25T16:19:04.633Z,32.7
2019-04-25T16:23:52.160Z,32.7
2019-04-25T16:28:39.070Z,32.5
2019-04-25T16:33:26.596Z,32.4
2019-04-25T16:38:13.837Z,32.1
2019-04-25T16:43:06.530Z,32.1
2019-04-25T16:47:55.120Z,32
2019-04-25T16:52:43.431Z,31.8
2019-04-25T16:57:31.499Z,31.5
2019-04-25T17:02:32.200Z,30.9
2019-04-25T17:07:20.719Z,30.2
2019-04-25T17:12:11.756Z,29.5
2019-04-25T17:16:58.977Z,29
2019-04-25T17:21:46.121Z,28.5
2019-04-25T17:26:33.521Z,28.1
2019-04-25T17:31:22.294Z,27.7
2019-04-25T17:36:09.794Z,27.3
2019-04-25T17:40:56.775Z,26.9
2019-04-25T17:45:44.821Z,26.6
2019-04-25T17:50:31.924Z,26.3
2019-04-25T17:55:21.854Z,26
2019-04-25T18:00:09.189Z,25.7
2019-04-25T18:04:56.369Z,25.3
2019-04-25T18:09:43.677Z,25
2019-04-25T18:14:30.417Z,24.6
2019-04-25T18:19:17.382Z,24.3
2019-04-25T18:24:04.252Z,24.1
2019-04-25T18:28:51.791Z,23.9
2019-04-25T18:33:39.348Z,23.7
2019-04-25T18:38:26.577Z,23.5
2019-04-25T18:43:14.462Z,23.3
2019-04-25T18:48:02.102Z,23.1
2019-04-25T18:52:50.891Z,22.9
2019-04-25T18:57:40.451Z,22.8
2019-04-25T19:02:28.807Z,22.6
2019-04-25T19:07:22.478Z,22.4
2019-04-25T19:12:09.919Z,22.3
2019-04-25T19:16:57.320Z,22.2
2019-04-25T19:21:44.206Z,22
2019-04-25T19:26:31.313Z,21.9
2019-04-25T19:31:18.855Z,21.7
2019-04-25T19:36:08.301Z,21.6
2019-04-25T19:40:55.614Z,21.5
2019-04-25T19:45:43.170Z,21.4
2019-04-25T19:49:44.994Z,21.2
2019-04-25T19:50:00.560Z,21.2
2019-04-25T19:50:16.103Z,21.2
2019-04-25T19:50:31.646Z,21.2
2019-04-25T19:50:47.975Z,21.2
2019-04-25T19:51:04.639Z,21.2
2019-04-25T19:51:20.161Z,21.2
2019-04-25T19:51:35.711Z,21.2
2019-04-25T19:52:38.389Z,21.2
2019-04-25T19:57:26.290Z,21.1
2019-04-25T20:02:13.295Z,21.1
2019-04-25T20:07:06.662Z,20.9
2019-04-25T20:11:53.867Z,20.8
2019-04-25T20:16:41.131Z,20.7
2019-04-25T20:21:28.125Z,20.6
2019-04-25T20:26:16.519Z,20.5
2019-04-25T20:31:03.491Z,20.4
2019-04-25T20:35:51.919Z,20.3
2019-04-25T20:39:53.787Z,20.2
2019-04-25T20:40:10.018Z,20.2
2019-04-25T20:41:12.422Z,20.1
2019-04-25T20:45:59.999Z,20.1
2019-04-25T20:50:48.340Z,20
2019-04-25T20:55:36.511Z,19.9
2019-04-25T21:00:24.532Z,19.8
2019-04-25T21:05:12.091Z,19.7
2019-04-25T21:10:02.847Z,19.6
2019-04-25T21:14:51.046Z,19.5
2019-04-25T21:19:38.493Z,19.4
2019-04-25T21:23:39.550Z,19.3
2019-04-25T21:23:55.592Z,19.3
2019-04-25T21:24:11.717Z,19.3
2019-04-25T21:25:14.341Z,19.3
2019-04-25T21:30:02.720Z,19.3
2019-04-25T21:34:50.767Z,19.2
2019-04-25T21:39:38.885Z,19.1
2019-04-25T21:44:29.340Z,19
2019-04-25T21:49:16.410Z,18.9
2019-04-25T21:54:03.964Z,18.8
2019-04-25T21:58:53.354Z,18.7
2019-04-25T22:02:56.051Z,18.6
2019-04-25T22:03:12.198Z,18.6
2019-04-25T22:03:28.404Z,18.6
2019-04-25T22:03:44.771Z,18.6
2019-04-25T22:04:47.646Z,18.6
2019-04-25T22:09:34.862Z,18.5
2019-04-25T22:14:22.515Z,18.5
2019-04-25T22:19:09.781Z,18.4
2019-04-25T22:24:06.136Z,18.4
2019-04-25T22:28:57.733Z,18.2
2019-04-25T22:33:44.911Z,18.2
2019-04-25T22:37:45.827Z,18.1
2019-04-25T22:38:06.760Z,18.1
2019-04-25T22:39:09.049Z,18.1
2019-04-25T22:43:56.531Z,18.1
2019-04-25T22:48:43.800Z,18.1
2019-04-25T22:53:31.075Z,18.1
2019-04-25T22:58:18.249Z,18.1
2019-04-25T23:03:07.263Z,18.2
2019-04-25T23:07:54.978Z,18.2
2019-04-25T23:11:55.929Z,18.2
2019-04-25T23:12:11.736Z,18.2
2019-04-25T23:12:28.299Z,18.2
2019-04-25T23:12:43.955Z,18.2
2019-04-25T23:13:47.567Z,18.2
2019-04-25T23:18:34.784Z,18.2
2019-04-25T23:23:22.184Z,18.1
2019-04-25T23:28:10.162Z,18
2019-04-25T23:32:57.490Z,17.9
2019-04-25T23:37:44.539Z,17.7
2019-04-25T23:42:32.239Z,17.7
2019-04-25T23:46:33.231Z,17.8
2019-04-25T23:46:49.019Z,17.8
2019-04-25T23:47:04.620Z,17.8
2019-04-25T23:47:20.437Z,17.8
2019-04-25T23:47:36.385Z,17.9
2019-04-25T23:47:52.503Z,17.9
2019-04-25T23:48:08.337Z,17.9
2019-04-25T23:48:23.878Z,17.9
2019-04-25T23:49:27.513Z,17.9
2019-04-25T23:54:15.153Z,18.2
2019-04-25T23:59:02.337Z,18.3
